sensor_id;sensor_type;location;lat;lon;timestamp;P1;durP1;ratioP1;P2;durP2;ratioP2
31638;SDS011;18248;51.522;7.020;2022-07-23T00:00:50;12.20;;;5.30;;
31638;SDS011;18248;51.522;7.020;2022-07-23T00:03:48;10.20;;;5.25;;
31638;SDS011;18248;51.522;7.020;2022-07-23T00:06:48;9.75;;;4.80;;
31638;SDS011;18248;51.522;7.020;2022-07-23T00:09:46;8.63;;;4.55;;
31638;SDS011;18248;51.522;7.020;2022-07-23T00:12:45;7.95;;;4.22;;
31638;SDS011;18248;51.522;7.020;2022-07-23T00:15:43;5.38;;;3.42;;
31638;SDS011;18248;51.522;7.020;2022-07-23T00:18:42;8.43;;;5.03;;
31638;SDS011;18248;51.522;7.020;2022-07-23T00:21:40;11.10;;;4.97;;
31638;SDS011;18248;51.522;7.020;2022-07-23T00:24:39;12.98;;;5.43;;
31638;SDS011;18248;51.522;7.020;2022-07-23T00:27:37;10.05;;;4.78;;
31638;SDS011;18248;51.522;7.020;2022-07-23T00:30:38;11.50;;;5.32;;
31638;SDS011;18248;51.522;7.020;2022-07-23T00:33:36;10.63;;;4.65;;
31638;SDS011;18248;51.522;7.020;2022-07-23T00:36:36;9.00;;;5.03;;
31638;SDS011;18248;51.522;7.020;2022-07-23T00:39:35;10.75;;;5.60;;
31638;SDS011;18248;51.522;7.020;2022-07-23T00:42:33;8.80;;;4.95;;
31638;SDS011;18248;51.522;7.020;2022-07-23T00:45:32;9.55;;;6.45;;
31638;SDS011;18248;51.522;7.020;2022-07-23T00:48:31;11.25;;;6.00;;
31638;SDS011;18248;51.522;7.020;2022-07-23T00:51:30;14.38;;;6.80;;
31638;SDS011;18248;51.522;7.020;2022-07-23T00:54:29;8.30;;;5.28;;
31638;SDS011;18248;51.522;7.020;2022-07-23T00:57:27;12.30;;;5.80;;
31638;SDS011;18248;51.522;7.020;2022-07-23T01:00:26;11.00;;;5.65;;
31638;SDS011;18248;51.522;7.020;2022-07-23T01:03:24;9.45;;;5.25;;
31638;SDS011;18248;51.522;7.020;2022-07-23T01:06:23;12.52;;;5.32;;
31638;SDS011;18248;51.522;7.020;2022-07-23T01:09:22;9.60;;;4.70;;
31638;SDS011;18248;51.522;7.020;2022-07-23T01:12:20;7.57;;;4.90;;
31638;SDS011;18248;51.522;7.020;2022-07-23T01:15:19;9.15;;;5.70;;
31638;SDS011;18248;51.522;7.020;2022-07-23T01:18:17;8.38;;;5.15;;
31638;SDS011;18248;51.522;7.020;2022-07-23T01:21:16;12.63;;;6.60;;
31638;SDS011;18248;51.522;7.020;2022-07-23T01:24:17;8.20;;;5.35;;
31638;SDS011;18248;51.522;7.020;2022-07-23T01:27:19;10.90;;;5.53;;
31638;SDS011;18248;51.522;7.020;2022-07-23T01:30:19;8.27;;;5.80;;
31638;SDS011;18248;51.522;7.020;2022-07-23T01:33:17;7.90;;;5.80;;
31638;SDS011;18248;51.522;7.020;2022-07-23T01:36:17;9.48;;;4.65;;
31638;SDS011;18248;51.522;7.020;2022-07-23T01:39:16;9.60;;;5.07;;
31638;SDS011;18248;51.522;7.020;2022-07-23T01:42:15;8.63;;;4.93;;
31638;SDS011;18248;51.522;7.020;2022-07-23T01:45:13;12.85;;;5.80;;
31638;SDS011;18248;51.522;7.020;2022-07-23T01:48:12;8.82;;;5.15;;
31638;SDS011;18248;51.522;7.020;2022-07-23T01:51:11;7.20;;;5.15;;
31638;SDS011;18248;51.522;7.020;2022-07-23T01:54:09;10.68;;;5.80;;
31638;SDS011;18248;51.522;7.020;2022-07-23T01:57:08;9.15;;;5.82;;
31638;SDS011;18248;51.522;7.020;2022-07-23T02:00:07;9.38;;;5.68;;
31638;SDS011;18248;51.522;7.020;2022-07-23T02:03:06;8.95;;;5.30;;
31638;SDS011;18248;51.522;7.020;2022-07-23T02:06:04;9.13;;;5.18;;
31638;SDS011;18248;51.522;7.020;2022-07-23T02:09:04;9.82;;;6.03;;
31638;SDS011;18248;51.522;7.020;2022-07-23T02:12:03;9.00;;;5.32;;
31638;SDS011;18248;51.522;7.020;2022-07-23T02:15:02;10.00;;;5.90;;
31638;SDS011;18248;51.522;7.020;2022-07-23T02:18:02;11.23;;;6.28;;
31638;SDS011;18248;51.522;7.020;2022-07-23T02:21:01;8.60;;;5.40;;
31638;SDS011;18248;51.522;7.020;2022-07-23T02:23:59;14.13;;;5.95;;
31638;SDS011;18248;51.522;7.020;2022-07-23T02:26:58;14.70;;;6.57;;
31638;SDS011;18248;51.522;7.020;2022-07-23T02:29:56;12.73;;;6.07;;
31638;SDS011;18248;51.522;7.020;2022-07-23T02:32:55;11.55;;;5.78;;
31638;SDS011;18248;51.522;7.020;2022-07-23T02:35:54;9.02;;;4.90;;
31638;SDS011;18248;51.522;7.020;2022-07-23T02:38:53;10.38;;;5.75;;
31638;SDS011;18248;51.522;7.020;2022-07-23T02:41:51;8.80;;;5.50;;
31638;SDS011;18248;51.522;7.020;2022-07-23T02:44:50;9.20;;;5.97;;
31638;SDS011;18248;51.522;7.020;2022-07-23T02:47:49;8.80;;;6.07;;
31638;SDS011;18248;51.522;7.020;2022-07-23T02:50:48;8.68;;;4.85;;
31638;SDS011;18248;51.522;7.020;2022-07-23T02:53:46;8.35;;;5.20;;
31638;SDS011;18248;51.522;7.020;2022-07-23T02:56:45;8.07;;;5.35;;
31638;SDS011;18248;51.522;7.020;2022-07-23T02:59:43;8.77;;;5.30;;
31638;SDS011;18248;51.522;7.020;2022-07-23T03:02:42;9.40;;;6.22;;
31638;SDS011;18248;51.522;7.020;2022-07-23T03:05:40;9.10;;;5.68;;
31638;SDS011;18248;51.522;7.020;2022-07-23T03:08:39;9.43;;;5.38;;
31638;SDS011;18248;51.522;7.020;2022-07-23T03:11:38;10.00;;;5.80;;
31638;SDS011;18248;51.522;7.020;2022-07-23T03:14:37;8.48;;;5.78;;
31638;SDS011;18248;51.522;7.020;2022-07-23T03:17:35;15.55;;;6.72;;
31638;SDS011;18248;51.522;7.020;2022-07-23T03:20:35;9.30;;;6.25;;
31638;SDS011;18248;51.522;7.020;2022-07-23T03:23:34;8.07;;;5.63;;
31638;SDS011;18248;51.522;7.020;2022-07-23T03:26:32;10.85;;;5.55;;
31638;SDS011;18248;51.522;7.020;2022-07-23T03:29:31;8.57;;;5.57;;
31638;SDS011;18248;51.522;7.020;2022-07-23T03:32:30;10.55;;;6.63;;
31638;SDS011;18248;51.522;7.020;2022-07-23T03:35:29;12.70;;;6.05;;
31638;SDS011;18248;51.522;7.020;2022-07-23T03:38:28;9.52;;;5.85;;
31638;SDS011;18248;51.522;7.020;2022-07-23T03:41:26;8.80;;;6.22;;
31638;SDS011;18248;51.522;7.020;2022-07-23T03:44:25;12.77;;;6.22;;
31638;SDS011;18248;51.522;7.020;2022-07-23T03:47:23;8.02;;;6.03;;
31638;SDS011;18248;51.522;7.020;2022-07-23T03:50:22;9.35;;;5.80;;
31638;SDS011;18248;51.522;7.020;2022-07-23T03:53:20;8.32;;;6.68;;
31638;SDS011;18248;51.522;7.020;2022-07-23T03:56:19;7.78;;;5.20;;
31638;SDS011;18248;51.522;7.020;2022-07-23T03:59:18;13.32;;;7.20;;
31638;SDS011;18248;51.522;7.020;2022-07-23T04:02:17;13.88;;;5.90;;
31638;SDS011;18248;51.522;7.020;2022-07-23T04:05:16;11.85;;;5.88;;
31638;SDS011;18248;51.522;7.020;2022-07-23T04:08:15;10.35;;;6.40;;
31638;SDS011;18248;51.522;7.020;2022-07-23T04:11:14;8.65;;;5.95;;
31638;SDS011;18248;51.522;7.020;2022-07-23T04:14:12;10.00;;;6.68;;
31638;SDS011;18248;51.522;7.020;2022-07-23T04:17:11;10.55;;;7.07;;
31638;SDS011;18248;51.522;7.020;2022-07-23T04:20:10;8.98;;;6.78;;
31638;SDS011;18248;51.522;7.020;2022-07-23T04:23:09;8.15;;;5.57;;
31638;SDS011;18248;51.522;7.020;2022-07-23T04:26:09;7.13;;;6.15;;
31638;SDS011;18248;51.522;7.020;2022-07-23T04:29:07;10.63;;;7.18;;
31638;SDS011;18248;51.522;7.020;2022-07-23T04:32:06;10.45;;;6.95;;
31638;SDS011;18248;51.522;7.020;2022-07-23T04:35:04;15.27;;;8.32;;
31638;SDS011;18248;51.522;7.020;2022-07-23T04:38:03;9.43;;;6.80;;
31638;SDS011;18248;51.522;7.020;2022-07-23T04:41:02;10.15;;;6.57;;
31638;SDS011;18248;51.522;7.020;2022-07-23T04:44:01;7.55;;;6.10;;
31638;SDS011;18248;51.522;7.020;2022-07-23T04:47:00;9.23;;;6.53;;
31638;SDS011;18248;51.522;7.020;2022-07-23T04:49:58;13.02;;;8.07;;
31638;SDS011;18248;51.522;7.020;2022-07-23T04:52:57;9.50;;;6.40;;
31638;SDS011;18248;51.522;7.020;2022-07-23T04:55:56;14.07;;;7.47;;
31638;SDS011;18248;51.522;7.020;2022-07-23T04:58:54;11.45;;;7.22;;
31638;SDS011;18248;51.522;7.020;2022-07-23T05:01:53;8.60;;;6.55;;
31638;SDS011;18248;51.522;7.020;2022-07-23T05:04:51;9.50;;;6.55;;
31638;SDS011;18248;51.522;7.020;2022-07-23T05:07:50;10.55;;;6.93;;
31638;SDS011;18248;51.522;7.020;2022-07-23T05:10:49;14.05;;;7.55;;
31638;SDS011;18248;51.522;7.020;2022-07-23T05:13:47;8.75;;;6.75;;
31638;SDS011;18248;51.522;7.020;2022-07-23T05:16:46;12.57;;;8.98;;
31638;SDS011;18248;51.522;7.020;2022-07-23T05:19:44;11.60;;;7.35;;
31638;SDS011;18248;51.522;7.020;2022-07-23T05:22:44;8.43;;;6.50;;
31638;SDS011;18248;51.522;7.020;2022-07-23T05:25:43;10.88;;;7.22;;
31638;SDS011;18248;51.522;7.020;2022-07-23T05:28:42;18.25;;;9.43;;
31638;SDS011;18248;51.522;7.020;2022-07-23T05:31:40;8.93;;;7.13;;
31638;SDS011;18248;51.522;7.020;2022-07-23T05:34:39;17.40;;;9.00;;
31638;SDS011;18248;51.522;7.020;2022-07-23T05:37:37;12.02;;;8.20;;
31638;SDS011;18248;51.522;7.020;2022-07-23T05:40:36;10.68;;;8.35;;
31638;SDS011;18248;51.522;7.020;2022-07-23T05:43:36;11.70;;;9.35;;
31638;SDS011;18248;51.522;7.020;2022-07-23T05:46:34;13.93;;;7.90;;
31638;SDS011;18248;51.522;7.020;2022-07-23T05:49:33;13.82;;;9.23;;
31638;SDS011;18248;51.522;7.020;2022-07-23T05:52:31;17.25;;;8.52;;
31638;SDS011;18248;51.522;7.020;2022-07-23T05:55:30;11.68;;;8.30;;
31638;SDS011;18248;51.522;7.020;2022-07-23T05:58:29;13.25;;;8.00;;
31638;SDS011;18248;51.522;7.020;2022-07-23T06:01:28;17.38;;;8.75;;
31638;SDS011;18248;51.522;7.020;2022-07-23T06:04:26;14.55;;;10.25;;
31638;SDS011;18248;51.522;7.020;2022-07-23T06:07:25;13.88;;;8.82;;
31638;SDS011;18248;51.522;7.020;2022-07-23T06:10:23;13.30;;;7.10;;
31638;SDS011;18248;51.522;7.020;2022-07-23T06:13:22;9.43;;;7.70;;
31638;SDS011;18248;51.522;7.020;2022-07-23T06:16:21;12.02;;;7.50;;
31638;SDS011;18248;51.522;7.020;2022-07-23T06:19:19;13.40;;;7.35;;
31638;SDS011;18248;51.522;7.020;2022-07-23T06:22:20;12.57;;;7.25;;
31638;SDS011;18248;51.522;7.020;2022-07-23T06:25:19;12.05;;;7.80;;
31638;SDS011;18248;51.522;7.020;2022-07-23T06:28:18;13.75;;;7.53;;
31638;SDS011;18248;51.522;7.020;2022-07-23T06:31:16;11.00;;;7.10;;
31638;SDS011;18248;51.522;7.020;2022-07-23T06:34:15;9.60;;;7.43;;
31638;SDS011;18248;51.522;7.020;2022-07-23T06:37:13;10.90;;;6.97;;
31638;SDS011;18248;51.522;7.020;2022-07-23T06:40:12;13.00;;;8.60;;
31638;SDS011;18248;51.522;7.020;2022-07-23T06:43:11;8.50;;;6.45;;
31638;SDS011;18248;51.522;7.020;2022-07-23T06:46:09;12.98;;;6.68;;
31638;SDS011;18248;51.522;7.020;2022-07-23T06:49:08;9.02;;;6.60;;
31638;SDS011;18248;51.522;7.020;2022-07-23T06:52:07;9.60;;;6.47;;
31638;SDS011;18248;51.522;7.020;2022-07-23T06:55:06;12.65;;;6.10;;
31638;SDS011;18248;51.522;7.020;2022-07-23T06:58:05;14.07;;;8.85;;
31638;SDS011;18248;51.522;7.020;2022-07-23T07:01:07;11.23;;;6.65;;
31638;SDS011;18248;51.522;7.020;2022-07-23T07:04:06;12.02;;;6.47;;
31638;SDS011;18248;51.522;7.020;2022-07-23T07:07:04;10.57;;;6.65;;
31638;SDS011;18248;51.522;7.020;2022-07-23T07:10:03;12.95;;;6.35;;
31638;SDS011;18248;51.522;7.020;2022-07-23T07:13:02;13.98;;;5.88;;
31638;SDS011;18248;51.522;7.020;2022-07-23T07:16:01;12.15;;;5.80;;
31638;SDS011;18248;51.522;7.020;2022-07-23T07:19:00;12.32;;;6.30;;
31638;SDS011;18248;51.522;7.020;2022-07-23T07:21:58;8.70;;;5.80;;
31638;SDS011;18248;51.522;7.020;2022-07-23T07:24:58;13.60;;;5.93;;
31638;SDS011;18248;51.522;7.020;2022-07-23T07:27:56;11.38;;;6.10;;
31638;SDS011;18248;51.522;7.020;2022-07-23T07:30:55;8.80;;;4.90;;
31638;SDS011;18248;51.522;7.020;2022-07-23T07:33:54;7.10;;;3.83;;
31638;SDS011;18248;51.522;7.020;2022-07-23T07:36:54;9.85;;;5.03;;
31638;SDS011;18248;51.522;7.020;2022-07-23T07:39:53;12.63;;;5.25;;
31638;SDS011;18248;51.522;7.020;2022-07-23T07:42:52;5.80;;;3.75;;
31638;SDS011;18248;51.522;7.020;2022-07-23T07:45:52;6.07;;;3.60;;
31638;SDS011;18248;51.522;7.020;2022-07-23T07:48:51;7.88;;;4.40;;
31638;SDS011;18248;51.522;7.020;2022-07-23T07:51:50;9.10;;;3.70;;
31638;SDS011;18248;51.522;7.020;2022-07-23T07:54:48;10.10;;;3.17;;
31638;SDS011;18248;51.522;7.020;2022-07-23T07:57:47;8.70;;;3.50;;
31638;SDS011;18248;51.522;7.020;2022-07-23T08:00:45;10.18;;;3.08;;
31638;SDS011;18248;51.522;7.020;2022-07-23T08:03:44;5.88;;;2.95;;
31638;SDS011;18248;51.522;7.020;2022-07-23T08:06:43;4.95;;;3.13;;
31638;SDS011;18248;51.522;7.020;2022-07-23T08:09:41;7.53;;;3.38;;
31638;SDS011;18248;51.522;7.020;2022-07-23T08:12:44;5.68;;;3.00;;
31638;SDS011;18248;51.522;7.020;2022-07-23T08:15:44;5.45;;;3.20;;
31638;SDS011;18248;51.522;7.020;2022-07-23T08:18:43;8.30;;;2.65;;
31638;SDS011;18248;51.522;7.020;2022-07-23T08:21:41;6.75;;;2.80;;
31638;SDS011;18248;51.522;7.020;2022-07-23T08:24:40;6.97;;;2.65;;
31638;SDS011;18248;51.522;7.020;2022-07-23T08:27:38;8.73;;;2.92;;
31638;SDS011;18248;51.522;7.020;2022-07-23T08:30:39;8.02;;;3.00;;
31638;SDS011;18248;51.522;7.020;2022-07-23T08:33:38;7.95;;;2.83;;
31638;SDS011;18248;51.522;7.020;2022-07-23T08:36:37;6.93;;;2.75;;
31638;SDS011;18248;51.522;7.020;2022-07-23T08:39:36;8.23;;;3.28;;
31638;SDS011;18248;51.522;7.020;2022-07-23T08:42:35;9.98;;;3.20;;
31638;SDS011;18248;51.522;7.020;2022-07-23T08:45:38;7.00;;;3.03;;
31638;SDS011;18248;51.522;7.020;2022-07-23T08:48:38;8.25;;;3.30;;
31638;SDS011;18248;51.522;7.020;2022-07-23T08:51:36;7.10;;;3.13;;
31638;SDS011;18248;51.522;7.020;2022-07-23T08:54:35;5.85;;;2.92;;
31638;SDS011;18248;51.522;7.020;2022-07-23T08:57:35;6.15;;;2.97;;
31638;SDS011;18248;51.522;7.020;2022-07-23T09:00:34;6.03;;;2.80;;
31638;SDS011;18248;51.522;7.020;2022-07-23T09:03:34;5.03;;;3.05;;
31638;SDS011;18248;51.522;7.020;2022-07-23T09:06:33;5.50;;;2.75;;
31638;SDS011;18248;51.522;7.020;2022-07-23T09:09:36;4.40;;;2.77;;
31638;SDS011;18248;51.522;7.020;2022-07-23T09:12:35;6.68;;;3.00;;
31638;SDS011;18248;51.522;7.020;2022-07-23T09:15:34;4.15;;;2.72;;
31638;SDS011;18248;51.522;7.020;2022-07-23T09:21:48;9.15;;;2.60;;
31638;SDS011;18248;51.522;7.020;2022-07-23T09:28:22;7.47;;;3.20;;
31638;SDS011;18248;51.522;7.020;2022-07-23T09:31:22;5.15;;;2.10;;
31638;SDS011;18248;51.522;7.020;2022-07-23T09:37:20;7.68;;;2.25;;
31638;SDS011;18248;51.522;7.020;2022-07-23T09:40:19;6.28;;;2.28;;
31638;SDS011;18248;51.522;7.020;2022-07-23T09:43:27;6.88;;;2.30;;
31638;SDS011;18248;51.522;7.020;2022-07-23T09:46:28;10.75;;;2.63;;
31638;SDS011;18248;51.522;7.020;2022-07-23T09:49:27;7.00;;;1.98;;
31638;SDS011;18248;51.522;7.020;2022-07-23T09:52:31;6.97;;;2.65;;
31638;SDS011;18248;51.522;7.020;2022-07-23T09:55:33;3.47;;;2.20;;
31638;SDS011;18248;51.522;7.020;2022-07-23T09:58:36;4.50;;;2.15;;
31638;SDS011;18248;51.522;7.020;2022-07-23T10:01:41;4.28;;;2.10;;
31638;SDS011;18248;51.522;7.020;2022-07-23T10:04:40;3.80;;;2.05;;
31638;SDS011;18248;51.522;7.020;2022-07-23T10:07:40;4.47;;;1.80;;
31638;SDS011;18248;51.522;7.020;2022-07-23T10:10:40;5.35;;;2.10;;
31638;SDS011;18248;51.522;7.020;2022-07-23T10:13:42;4.55;;;2.00;;
31638;SDS011;18248;51.522;7.020;2022-07-23T10:16:53;4.80;;;1.73;;
31638;SDS011;18248;51.522;7.020;2022-07-23T10:19:52;5.30;;;1.83;;
31638;SDS011;18248;51.522;7.020;2022-07-23T10:35:43;5.40;;;1.92;;
31638;SDS011;18248;51.522;7.020;2022-07-23T10:38:52;4.20;;;1.73;;
31638;SDS011;18248;51.522;7.020;2022-07-23T10:42:07;4.80;;;1.60;;
31638;SDS011;18248;51.522;7.020;2022-07-23T10:45:23;4.78;;;1.55;;
31638;SDS011;18248;51.522;7.020;2022-07-23T10:48:26;5.70;;;2.03;;
31638;SDS011;18248;51.522;7.020;2022-07-23T10:51:24;4.88;;;1.75;;
31638;SDS011;18248;51.522;7.020;2022-07-23T10:54:25;4.13;;;2.03;;
31638;SDS011;18248;51.522;7.020;2022-07-23T10:57:25;4.60;;;1.70;;
31638;SDS011;18248;51.522;7.020;2022-07-23T11:00:26;3.25;;;1.90;;
31638;SDS011;18248;51.522;7.020;2022-07-23T11:03:28;3.20;;;1.95;;
31638;SDS011;18248;51.522;7.020;2022-07-23T11:09:49;4.75;;;1.77;;
31638;SDS011;18248;51.522;7.020;2022-07-23T11:12:48;5.07;;;1.50;;
31638;SDS011;18248;51.522;7.020;2022-07-23T11:19:11;3.80;;;1.70;;
31638;SDS011;18248;51.522;7.020;2022-07-23T11:22:10;3.15;;;1.38;;
31638;SDS011;18248;51.522;7.020;2022-07-23T11:25:38;3.22;;;1.58;;
31638;SDS011;18248;51.522;7.020;2022-07-23T11:28:37;3.15;;;1.58;;
31638;SDS011;18248;51.522;7.020;2022-07-23T11:31:35;3.85;;;1.48;;
31638;SDS011;18248;51.522;7.020;2022-07-23T11:37:40;3.57;;;1.80;;
31638;SDS011;18248;51.522;7.020;2022-07-23T11:40:39;5.03;;;1.77;;
31638;SDS011;18248;51.522;7.020;2022-07-23T11:43:37;4.32;;;1.55;;
31638;SDS011;18248;51.522;7.020;2022-07-23T11:46:36;4.13;;;1.48;;
31638;SDS011;18248;51.522;7.020;2022-07-23T11:49:35;2.88;;;1.65;;
31638;SDS011;18248;51.522;7.020;2022-07-23T11:52:34;3.55;;;1.75;;
31638;SDS011;18248;51.522;7.020;2022-07-23T11:55:33;5.63;;;2.38;;
31638;SDS011;18248;51.522;7.020;2022-07-23T11:58:31;3.60;;;1.60;;
31638;SDS011;18248;51.522;7.020;2022-07-23T12:01:30;4.05;;;1.55;;
31638;SDS011;18248;51.522;7.020;2022-07-23T12:04:39;4.88;;;1.77;;
31638;SDS011;18248;51.522;7.020;2022-07-23T12:07:44;2.28;;;1.65;;
31638;SDS011;18248;51.522;7.020;2022-07-23T12:10:47;3.17;;;1.10;;
31638;SDS011;18248;51.522;7.020;2022-07-23T12:13:55;1.95;;;1.13;;
31638;SDS011;18248;51.522;7.020;2022-07-23T12:17:07;3.17;;;1.45;;
31638;SDS011;18248;51.522;7.020;2022-07-23T12:20:10;2.08;;;1.10;;
31638;SDS011;18248;51.522;7.020;2022-07-23T12:23:15;2.78;;;0.90;;
31638;SDS011;18248;51.522;7.020;2022-07-23T12:26:15;3.60;;;1.20;;
31638;SDS011;18248;51.522;7.020;2022-07-23T12:29:13;5.85;;;1.48;;
31638;SDS011;18248;51.522;7.020;2022-07-23T12:32:19;2.55;;;1.40;;
31638;SDS011;18248;51.522;7.020;2022-07-23T12:35:22;3.88;;;1.30;;
31638;SDS011;18248;51.522;7.020;2022-07-23T12:38:22;1.48;;;1.00;;
31638;SDS011;18248;51.522;7.020;2022-07-23T12:41:22;1.13;;;0.75;;
31638;SDS011;18248;51.522;7.020;2022-07-23T12:44:21;4.43;;;1.20;;
31638;SDS011;18248;51.522;7.020;2022-07-23T12:47:19;6.78;;;1.10;;
31638;SDS011;18248;51.522;7.020;2022-07-23T12:50:31;3.38;;;1.00;;
31638;SDS011;18248;51.522;7.020;2022-07-23T12:53:50;3.08;;;1.10;;
31638;SDS011;18248;51.522;7.020;2022-07-23T12:56:51;2.63;;;1.25;;
31638;SDS011;18248;51.522;7.020;2022-07-23T12:59:49;3.35;;;1.35;;
31638;SDS011;18248;51.522;7.020;2022-07-23T13:02:48;2.53;;;1.38;;
31638;SDS011;18248;51.522;7.020;2022-07-23T13:05:47;3.58;;;1.48;;
31638;SDS011;18248;51.522;7.020;2022-07-23T13:08:45;3.55;;;1.20;;
31638;SDS011;18248;51.522;7.020;2022-07-23T13:11:44;3.53;;;1.13;;
31638;SDS011;18248;51.522;7.020;2022-07-23T13:14:44;5.88;;;1.67;;
31638;SDS011;18248;51.522;7.020;2022-07-23T13:17:42;4.07;;;1.67;;
31638;SDS011;18248;51.522;7.020;2022-07-23T13:20:46;2.90;;;1.30;;
31638;SDS011;18248;51.522;7.020;2022-07-23T13:23:46;2.33;;;1.42;;
31638;SDS011;18248;51.522;7.020;2022-07-23T13:26:44;2.67;;;1.40;;
31638;SDS011;18248;51.522;7.020;2022-07-23T13:29:44;3.55;;;1.20;;
31638;SDS011;18248;51.522;7.020;2022-07-23T13:32:43;3.38;;;1.30;;
31638;SDS011;18248;51.522;7.020;2022-07-23T13:35:42;2.75;;;1.20;;
31638;SDS011;18248;51.522;7.020;2022-07-23T13:38:41;4.07;;;1.20;;
31638;SDS011;18248;51.522;7.020;2022-07-23T13:41:40;1.95;;;1.13;;
31638;SDS011;18248;51.522;7.020;2022-07-23T13:44:40;2.80;;;1.30;;
31638;SDS011;18248;51.522;7.020;2022-07-23T13:47:39;3.25;;;1.20;;
31638;SDS011;18248;51.522;7.020;2022-07-23T13:50:37;2.63;;;1.15;;
31638;SDS011;18248;51.522;7.020;2022-07-23T13:53:37;5.53;;;1.38;;
31638;SDS011;18248;51.522;7.020;2022-07-23T13:56:36;4.22;;;1.88;;
31638;SDS011;18248;51.522;7.020;2022-07-23T13:59:35;2.30;;;1.40;;
31638;SDS011;18248;51.522;7.020;2022-07-23T14:02:35;4.00;;;1.70;;
31638;SDS011;18248;51.522;7.020;2022-07-23T14:05:36;4.70;;;1.70;;
31638;SDS011;18248;51.522;7.020;2022-07-23T14:08:35;3.20;;;1.40;;
31638;SDS011;18248;51.522;7.020;2022-07-23T14:11:33;3.78;;;1.50;;
31638;SDS011;18248;51.522;7.020;2022-07-23T14:14:32;2.58;;;1.40;;
31638;SDS011;18248;51.522;7.020;2022-07-23T14:17:31;2.28;;;1.40;;
31638;SDS011;18248;51.522;7.020;2022-07-23T14:20:30;2.00;;;1.33;;
31638;SDS011;18248;51.522;7.020;2022-07-23T14:23:29;5.22;;;1.88;;
31638;SDS011;18248;51.522;7.020;2022-07-23T14:26:28;3.55;;;1.52;;
31638;SDS011;18248;51.522;7.020;2022-07-23T14:29:26;4.78;;;2.40;;
31638;SDS011;18248;51.522;7.020;2022-07-23T14:32:26;4.53;;;1.80;;
31638;SDS011;18248;51.522;7.020;2022-07-23T14:35:25;3.30;;;1.48;;
31638;SDS011;18248;51.522;7.020;2022-07-23T14:38:23;3.42;;;1.77;;
31638;SDS011;18248;51.522;7.020;2022-07-23T14:41:22;3.65;;;1.60;;
31638;SDS011;18248;51.522;7.020;2022-07-23T14:44:20;3.60;;;1.42;;
31638;SDS011;18248;51.522;7.020;2022-07-23T14:47:19;4.32;;;1.40;;
31638;SDS011;18248;51.522;7.020;2022-07-23T14:50:18;3.33;;;1.52;;
31638;SDS011;18248;51.522;7.020;2022-07-23T14:53:16;2.65;;;1.77;;
31638;SDS011;18248;51.522;7.020;2022-07-23T14:56:15;3.35;;;1.70;;
31638;SDS011;18248;51.522;7.020;2022-07-23T14:59:13;5.53;;;2.05;;
31638;SDS011;18248;51.522;7.020;2022-07-23T15:02:13;2.88;;;1.58;;
31638;SDS011;18248;51.522;7.020;2022-07-23T15:05:12;4.22;;;1.58;;
31638;SDS011;18248;51.522;7.020;2022-07-23T15:08:10;3.13;;;1.70;;
31638;SDS011;18248;51.522;7.020;2022-07-23T15:11:09;4.03;;;1.50;;
31638;SDS011;18248;51.522;7.020;2022-07-23T15:14:08;3.90;;;2.10;;
31638;SDS011;18248;51.522;7.020;2022-07-23T15:17:06;3.15;;;1.42;;
31638;SDS011;18248;51.522;7.020;2022-07-23T15:20:06;3.38;;;2.10;;
31638;SDS011;18248;51.522;7.020;2022-07-23T15:23:06;5.63;;;1.70;;
31638;SDS011;18248;51.522;7.020;2022-07-23T15:26:05;2.25;;;1.48;;
31638;SDS011;18248;51.522;7.020;2022-07-23T15:29:05;5.75;;;2.13;;
31638;SDS011;18248;51.522;7.020;2022-07-23T15:32:04;5.50;;;1.90;;
31638;SDS011;18248;51.522;7.020;2022-07-23T15:35:03;3.45;;;1.50;;
31638;SDS011;18248;51.522;7.020;2022-07-23T15:38:04;2.55;;;1.77;;
31638;SDS011;18248;51.522;7.020;2022-07-23T15:41:03;4.40;;;1.88;;
31638;SDS011;18248;51.522;7.020;2022-07-23T15:44:02;4.97;;;1.55;;
31638;SDS011;18248;51.522;7.020;2022-07-23T15:47:01;4.45;;;1.70;;
31638;SDS011;18248;51.522;7.020;2022-07-23T15:50:00;4.38;;;1.65;;
31638;SDS011;18248;51.522;7.020;2022-07-23T15:52:58;3.60;;;1.90;;
31638;SDS011;18248;51.522;7.020;2022-07-23T15:55:57;4.88;;;2.10;;
31638;SDS011;18248;51.522;7.020;2022-07-23T15:58:55;6.05;;;1.80;;
31638;SDS011;18248;51.522;7.020;2022-07-23T16:01:54;4.55;;;2.20;;
31638;SDS011;18248;51.522;7.020;2022-07-23T16:04:53;2.92;;;1.70;;
31638;SDS011;18248;51.522;7.020;2022-07-23T16:07:51;12.45;;;10.25;;
31638;SDS011;18248;51.522;7.020;2022-07-23T16:10:50;6.53;;;3.47;;
31638;SDS011;18248;51.522;7.020;2022-07-23T16:13:49;3.42;;;2.17;;
31638;SDS011;18248;51.522;7.020;2022-07-23T16:16:47;8.10;;;4.60;;
31638;SDS011;18248;51.522;7.020;2022-07-23T16:19:47;3.78;;;2.53;;
31638;SDS011;18248;51.522;7.020;2022-07-23T16:22:46;4.22;;;1.95;;
31638;SDS011;18248;51.522;7.020;2022-07-23T16:25:44;3.35;;;1.80;;
31638;SDS011;18248;51.522;7.020;2022-07-23T16:28:43;5.07;;;2.10;;
31638;SDS011;18248;51.522;7.020;2022-07-23T16:31:42;4.50;;;1.85;;
31638;SDS011;18248;51.522;7.020;2022-07-23T16:34:41;5.60;;;2.38;;
31638;SDS011;18248;51.522;7.020;2022-07-23T16:37:40;4.63;;;2.60;;
31638;SDS011;18248;51.522;7.020;2022-07-23T16:40:39;3.15;;;1.90;;
31638;SDS011;18248;51.522;7.020;2022-07-23T16:43:38;3.28;;;1.88;;
31638;SDS011;18248;51.522;7.020;2022-07-23T16:46:37;4.70;;;2.00;;
31638;SDS011;18248;51.522;7.020;2022-07-23T16:49:36;4.72;;;2.20;;
31638;SDS011;18248;51.522;7.020;2022-07-23T16:52:36;5.22;;;2.20;;
31638;SDS011;18248;51.522;7.020;2022-07-23T16:55:34;4.82;;;2.70;;
31638;SDS011;18248;51.522;7.020;2022-07-23T16:58:33;3.58;;;2.42;;
31638;SDS011;18248;51.522;7.020;2022-07-23T17:01:32;3.67;;;2.40;;
31638;SDS011;18248;51.522;7.020;2022-07-23T17:04:30;3.25;;;1.88;;
31638;SDS011;18248;51.522;7.020;2022-07-23T17:07:29;3.97;;;2.20;;
31638;SDS011;18248;51.522;7.020;2022-07-23T17:10:27;3.45;;;2.22;;
31638;SDS011;18248;51.522;7.020;2022-07-23T17:13:26;4.28;;;2.60;;
31638;SDS011;18248;51.522;7.020;2022-07-23T17:16:27;3.53;;;1.85;;
31638;SDS011;18248;51.522;7.020;2022-07-23T17:19:26;2.58;;;1.80;;
31638;SDS011;18248;51.522;7.020;2022-07-23T17:22:24;3.90;;;2.25;;
31638;SDS011;18248;51.522;7.020;2022-07-23T17:25:23;3.97;;;2.00;;
31638;SDS011;18248;51.522;7.020;2022-07-23T17:28:22;5.68;;;3.17;;
31638;SDS011;18248;51.522;7.020;2022-07-23T17:31:20;5.57;;;2.88;;
31638;SDS011;18248;51.522;7.020;2022-07-23T17:34:20;3.30;;;1.98;;
31638;SDS011;18248;51.522;7.020;2022-07-23T17:37:19;5.47;;;2.08;;
31638;SDS011;18248;51.522;7.020;2022-07-23T17:40:17;3.38;;;1.92;;
31638;SDS011;18248;51.522;7.020;2022-07-23T17:43:16;5.38;;;2.40;;
31638;SDS011;18248;51.522;7.020;2022-07-23T17:46:15;4.13;;;2.40;;
31638;SDS011;18248;51.522;7.020;2022-07-23T17:49:14;4.75;;;2.58;;
31638;SDS011;18248;51.522;7.020;2022-07-23T17:52:12;4.90;;;2.17;;
31638;SDS011;18248;51.522;7.020;2022-07-23T17:55:11;5.68;;;2.60;;
31638;SDS011;18248;51.522;7.020;2022-07-23T17:58:09;6.38;;;2.92;;
31638;SDS011;18248;51.522;7.020;2022-07-23T18:01:08;6.35;;;2.85;;
31638;SDS011;18248;51.522;7.020;2022-07-23T18:04:07;5.10;;;2.35;;
31638;SDS011;18248;51.522;7.020;2022-07-23T18:07:08;5.03;;;1.75;;
31638;SDS011;18248;51.522;7.020;2022-07-23T18:10:07;3.92;;;2.17;;
31638;SDS011;18248;51.522;7.020;2022-07-23T18:13:06;3.80;;;2.17;;
31638;SDS011;18248;51.522;7.020;2022-07-23T18:16:05;6.05;;;2.10;;
31638;SDS011;18248;51.522;7.020;2022-07-23T18:19:04;3.05;;;2.00;;
31638;SDS011;18248;51.522;7.020;2022-07-23T18:22:03;3.80;;;2.20;;
31638;SDS011;18248;51.522;7.020;2022-07-23T18:25:02;4.88;;;2.38;;
31638;SDS011;18248;51.522;7.020;2022-07-23T18:28:02;4.53;;;2.10;;
31638;SDS011;18248;51.522;7.020;2022-07-23T18:31:02;4.57;;;2.10;;